Airfield :
LOGIN :

Register | Disclaimer

   EN    FR    IT 

 










Legend :    VFR   Marginal VFR   IFR   Intensive IFR   Very Intensive IFR
Visi :
Ceiling :
>= 8 km
>= 3000ft
5 to 8 km
1000 to 3000 ft
1500m to 5 km
500 to 1000 ft
800 to 1500m
200 to 500 ft
< 800m
< 200 ft
Symbols :   Thunderstorms  Fog  Heavy snow  Heavy precipitations  Wind > 20 kt
SIGMETs :     Misc.  Thunderstorms  Icing  Turbulence  Mountain Waves  Volcanic Ashes







- Airport Elevation : 249 ft


EGOS - RAF Shawbury

CURRENT METAR :
  • 261950Z 07007KT 9999 BKN016 15/12 Q1030 TEMPO BKN014 RMK BLACKWHT TEMPO GRN

EXPIRED METARs :
  • 261850Z 08009KT 9999 BKN014 OVC018 15/12 Q1030 TEMPO FEW014 BKN018 RMK BLACKGRN TEMPO WHT
  • 261750Z 08011KT 9999 OVC014 15/12 Q1030 NOSIG RMK BLACKGRN GRN

TAF TAF EGOS
Valid from the 26 at 18:00 until the 27 at 03:00 UTC


261635Z 2618/2703 07008KT 9999 BKN012
PROB30 2618/2620 BKN016
No reported NOTAMs for that airfield.



MET'MAP, your aeronautical weather chart ! - Copyright ORBIFLY December 2007 - Disclaimer

ORBIFLY MET'MAP TEAM :

Programming & Development : Alexandra Zaïnal
Concept & Development : Baudouin d'Aumeries
Co-Development & Prog : Marc-Olivier Méhu
Technical & hardware support : Manuel Goepfert

Contact : metmap@orbifly.com




SOURCES & CREDITS :

   NOAA